Time;durP1;ratioP1;P1;durP2;ratioP2;P2;SDS_P1;SDS_P2;PMS_P1;PMS_P2;Temp;Humidity;BMP_temperature;BMP_pressure;BME280_temperature;BME280_humidity;BME280_pressure;Samples;Min_cycle;Max_cycle;Signal;HPM_P1;HPM_P2
2021/10/06 00:00:38;;;;;;;6.75;4.50;;;12.90;72.10;;;;;;5034231;28;20517;-51
2021/10/06 00:03:03;;;;;;;6.25;4.65;;;12.90;72.00;;;;;;5031054;28;20065;-51
2021/10/06 00:05:29;;;;;;;9.18;4.63;;;12.90;72.00;;;;;;5014203;28;20079;-51
2021/10/06 00:07:55;;;;;;;7.57;4.82;;;12.90;72.00;;;;;;5017428;28;20101;-53
2021/10/06 00:10:20;;;;;;;6.28;4.00;;;12.80;71.80;;;;;;5034540;28;20044;-51
2021/10/06 00:12:46;;;;;;;7.55;4.93;;;12.80;71.70;;;;;;5033717;28;20088;-54
2021/10/06 00:15:12;;;;;;;6.90;4.78;;;12.80;71.90;;;;;;5033946;28;20021;-51
2021/10/06 00:17:39;;;;;;;6.20;4.85;;;12.80;71.90;;;;;;5031585;28;20407;-51
2021/10/06 00:20:06;;;;;;;6.35;4.78;;;12.70;72.10;;;;;;5037178;28;20030;-51
2021/10/06 00:22:32;;;;;;;6.03;4.53;;;12.70;72.20;;;;;;5013764;28;20060;-52
2021/10/06 00:24:57;;;;;;;7.38;4.72;;;12.60;72.60;;;;;;5033791;28;20104;-52
2021/10/06 00:27:23;;;;;;;7.15;5.10;;;12.60;72.80;;;;;;5034683;28;20473;-51
2021/10/06 00:29:49;;;;;;;6.60;4.53;;;12.60;73.00;;;;;;5033563;28;20097;-51
2021/10/06 00:32:14;;;;;;;5.95;4.80;;;12.60;73.00;;;;;;5033852;28;20113;-51
2021/10/06 00:34:40;;;;;;;6.32;5.10;;;12.50;72.90;;;;;;5033733;28;20026;-51
2021/10/06 00:37:06;;;;;;;5.30;4.25;;;12.50;73.00;;;;;;5015560;28;20506;-51
2021/10/06 00:39:32;;;;;;;8.05;4.78;;;12.50;73.30;;;;;;5013636;28;20125;-50
2021/10/06 00:41:57;;;;;;;6.25;4.55;;;12.50;73.40;;;;;;5013801;28;20033;-51
2021/10/06 00:44:23;;;;;;;7.50;4.47;;;12.50;73.40;;;;;;5022795;28;20045;-52
2021/10/06 00:46:50;;;;;;;6.82;4.43;;;12.40;73.30;;;;;;5031773;28;20025;-52
2021/10/06 00:49:16;;;;;;;5.07;4.40;;;12.50;73.30;;;;;;5032868;28;20036;-51
2021/10/06 00:51:42;;;;;;;5.75;4.38;;;12.40;73.30;;;;;;5029505;28;20060;-51
2021/10/06 00:54:08;;;;;;;6.72;4.07;;;12.40;73.50;;;;;;5019629;28;20037;-50
2021/10/06 00:56:34;;;;;;;5.55;4.43;;;12.40;73.60;;;;;;5029033;28;20071;-51
2021/10/06 00:59:01;;;;;;;6.50;4.65;;;12.40;73.80;;;;;;5031436;28;20037;-51
2021/10/06 01:01:26;;;;;;;6.85;4.57;;;12.30;74.10;;;;;;5032956;28;20050;-51
2021/10/06 01:03:52;;;;;;;5.80;4.35;;;12.30;74.00;;;;;;5032880;28;20033;-51
2021/10/06 01:06:18;;;;;;;6.13;4.70;;;12.30;74.10;;;;;;5017207;28;20041;-52
2021/10/06 01:08:43;;;;;;;5.70;4.20;;;12.30;74.20;;;;;;5026573;28;20028;-51
2021/10/06 01:11:10;;;;;;;4.78;3.92;;;12.30;74.50;;;;;;5014050;28;20026;-51
2021/10/06 01:13:37;;;;;;;5.00;3.88;;;12.30;74.50;;;;;;5033237;28;20030;-51
2021/10/06 01:16:06;;;;;;;6.20;4.90;;;12.30;74.50;;;;;;5033191;28;20366;-51
2021/10/06 01:18:32;;;;;;;7.15;4.65;;;12.30;74.50;;;;;;5032773;28;20499;-51
2021/10/06 01:21:12;;;;;;;6.30;4.80;;;12.30;74.50;;;;;;5033149;28;20101;-50
2021/10/06 01:23:38;;;;;;;6.00;4.93;;;12.30;74.60;;;;;;5033078;28;20057;-51
2021/10/06 01:26:04;;;;;;;5.88;4.50;;;12.30;74.50;;;;;;5031832;28;20021;-51
2021/10/06 01:28:30;;;;;;;5.38;4.22;;;12.30;74.50;;;;;;5013398;28;20057;-51
2021/10/06 01:30:56;;;;;;;6.25;4.43;;;12.30;74.40;;;;;;5013314;28;20025;-51
2021/10/06 01:33:22;;;;;;;6.07;4.85;;;12.30;74.40;;;;;;5022362;28;20072;-51
2021/10/06 01:35:47;;;;;;;6.25;4.72;;;12.20;74.30;;;;;;5028107;28;20021;-51
2021/10/06 01:38:13;;;;;;;6.28;5.18;;;12.20;74.40;;;;;;5030629;28;20041;-51
2021/10/06 01:40:38;;;;;;;5.82;4.60;;;12.20;74.40;;;;;;5033091;28;20040;-51
2021/10/06 01:43:04;;;;;;;6.22;4.55;;;12.20;74.60;;;;;;5014295;28;20038;-51
2021/10/06 01:45:31;;;;;;;6.18;4.82;;;12.10;74.60;;;;;;5013075;28;20026;-51
2021/10/06 01:48:05;;;;;;;5.13;4.20;;;12.10;74.80;;;;;;5028911;28;20021;-51
2021/10/06 01:50:31;;;;;;;6.07;4.68;;;12.10;74.90;;;;;;5032500;28;20105;-51
2021/10/06 01:52:57;;;;;;;7.85;5.10;;;12.10;75.00;;;;;;5032686;28;20025;-51
2021/10/06 01:55:31;;;;;;;7.35;4.47;;;12.10;76.00;;;;;;5033010;28;20549;-51
2021/10/06 01:57:58;;;;;;;5.30;4.53;;;12.00;75.30;;;;;;5019423;28;20033;-54
2021/10/06 02:00:24;;;;;;;8.15;4.93;;;12.00;75.40;;;;;;5016571;28;20024;-52
2021/10/06 02:02:50;;;;;;;5.65;4.70;;;12.00;75.70;;;;;;5031285;28;20057;-52
2021/10/06 02:05:16;;;;;;;6.05;4.05;;;11.90;75.70;;;;;;5032520;28;20425;-51
2021/10/06 02:07:41;;;;;;;5.88;4.68;;;12.00;75.90;;;;;;5033844;28;20029;-51
2021/10/06 02:10:08;;;;;;;8.57;4.72;;;12.00;76.00;;;;;;5036124;28;20037;-51
2021/10/06 02:12:33;;;;;;;6.90;5.30;;;12.00;76.10;;;;;;5035795;28;20025;-51
2021/10/06 02:14:59;;;;;;;6.00;4.75;;;12.00;76.20;;;;;;5035972;28;20462;-50
2021/10/06 02:17:25;;;;;;;7.47;4.68;;;11.90;76.30;;;;;;5032988;28;20029;-51
2021/10/06 02:19:50;;;;;;;6.10;4.90;;;11.90;76.20;;;;;;5035810;28;20029;-51
2021/10/06 02:22:16;;;;;;;5.57;4.88;;;11.90;76.40;;;;;;5036145;28;20032;-51
2021/10/06 02:24:42;;;;;;;6.60;4.88;;;11.90;76.30;;;;;;5035968;28;20037;-51
2021/10/06 02:27:07;;;;;;;6.13;4.97;;;11.90;76.30;;;;;;5035661;28;20022;-51
2021/10/06 02:29:34;;;;;;;6.50;5.20;;;11.90;76.40;;;;;;5035509;28;20361;-51
2021/10/06 02:32:00;;;;;;;6.47;5.07;;;11.90;76.50;;;;;;5035805;28;20033;-51
2021/10/06 02:34:25;;;;;;;6.55;5.50;;;11.90;76.60;;;;;;5035824;28;20032;-51
2021/10/06 02:36:52;;;;;;;6.50;5.50;;;11.90;77.00;;;;;;5035562;28;20025;-51
2021/10/06 02:39:19;;;;;;;8.23;5.30;;;11.80;77.00;;;;;;5035635;28;20060;-51
2021/10/06 02:41:44;;;;;;;5.88;4.97;;;11.80;77.20;;;;;;5035844;28;20661;-54
2021/10/06 02:44:10;;;;;;;7.00;5.20;;;11.80;77.50;;;;;;5035456;28;20029;-51
2021/10/06 02:46:37;;;;;;;10.45;5.70;;;11.80;77.60;;;;;;5020760;28;20044;-51
2021/10/06 02:49:03;;;;;;;5.90;4.80;;;11.80;77.90;;;;;;5034866;28;20033;-51
2021/10/06 02:51:29;;;;;;;7.80;5.78;;;11.70;78.10;;;;;;5035534;28;20095;-51
2021/10/06 02:53:54;;;;;;;6.10;5.18;;;11.80;78.40;;;;;;5034563;28;20026;-51
2021/10/06 02:56:20;;;;;;;5.80;5.15;;;11.80;78.20;;;;;;5035448;28;20706;-51
2021/10/06 02:58:46;;;;;;;5.90;4.43;;;11.80;78.40;;;;;;5029769;28;20022;-51
2021/10/06 03:01:12;;;;;;;7.00;4.93;;;11.80;78.50;;;;;;5034555;28;20030;-51
2021/10/06 03:03:37;;;;;;;6.40;5.20;;;11.80;78.50;;;;;;5035230;28;20025;-53
2021/10/06 03:06:04;;;;;;;6.10;5.15;;;11.80;78.50;;;;;;5034572;28;20128;-51
2021/10/06 03:08:29;;;;;;;5.78;4.88;;;11.80;78.60;;;;;;5021287;28;20030;-51
2021/10/06 03:10:55;;;;;;;5.72;4.47;;;11.80;78.60;;;;;;5014140;28;20018;-53
2021/10/06 03:13:21;;;;;;;6.05;4.93;;;11.80;78.60;;;;;;5013669;28;20060;-51
2021/10/06 03:15:46;;;;;;;7.20;5.20;;;11.80;78.50;;;;;;5015224;28;20111;-51
2021/10/06 03:18:12;;;;;;;6.00;5.10;;;11.80;78.60;;;;;;5031361;28;20163;-51
2021/10/06 03:20:38;;;;;;;6.00;5.10;;;11.80;78.70;;;;;;5034879;28;20346;-50
2021/10/06 03:23:07;;;;;;;5.40;4.80;;;11.80;78.60;;;;;;5034656;28;20029;-51
2021/10/06 03:25:33;;;;;;;5.80;4.53;;;11.80;78.80;;;;;;5034875;28;20029;-51
2021/10/06 03:28:00;;;;;;;6.55;4.97;;;11.80;78.90;;;;;;5034855;28;20029;-51
2021/10/06 03:30:25;;;;;;;6.53;5.15;;;11.80;78.90;;;;;;5034879;28;20018;-51
2021/10/06 03:32:51;;;;;;;7.18;5.30;;;11.70;78.70;;;;;;5030178;28;20091;-51
2021/10/06 03:35:18;;;;;;;5.80;5.20;;;11.80;78.90;;;;;;5031635;28;20030;-51
2021/10/06 03:37:45;;;;;;;7.13;5.65;;;11.70;78.90;;;;;;5034492;28;20532;-52
2021/10/06 03:40:11;;;;;;;5.80;4.95;;;11.80;78.90;;;;;;5052406;28;20075;-52
2021/10/06 03:42:38;;;;;;;6.82;5.20;;;11.70;78.80;;;;;;5054437;28;20037;-52
2021/10/06 03:45:08;;;;;;;9.20;5.65;;;11.70;78.90;;;;;;5054475;28;20025;-51
2021/10/06 03:47:34;;;;;;;6.03;4.93;;;11.70;79.00;;;;;;5043017;28;20032;-51
2021/10/06 03:50:00;;;;;;;7.82;5.38;;;11.70;79.00;;;;;;5030309;28;20069;-52
2021/10/06 03:52:26;;;;;;;7.50;6.05;;;11.70;79.20;;;;;;5032666;28;20025;-51
2021/10/06 03:54:51;;;;;;;6.47;5.40;;;11.70;79.30;;;;;;5034391;28;20095;-51
2021/10/06 03:57:17;;;;;;;7.20;5.30;;;11.70;79.60;;;;;;5034379;28;20036;-51
2021/10/06 03:59:43;;;;;;;6.40;5.68;;;11.70;79.50;;;;;;5034055;28;20098;-53
2021/10/06 04:02:09;;;;;;;9.23;5.57;;;11.70;79.60;;;;;;5034098;28;20040;-51
2021/10/06 04:04:34;;;;;;;7.88;5.85;;;11.70;79.60;;;;;;5034093;28;20151;-50
2021/10/06 04:07:00;;;;;;;5.93;5.30;;;11.70;79.80;;;;;;5022041;28;20117;-51
2021/10/06 04:09:26;;;;;;;8.80;5.75;;;11.60;79.70;;;;;;5032513;28;20032;-51
2021/10/06 04:11:52;;;;;;;8.15;5.60;;;11.70;80.00;;;;;;5034162;28;20052;-52
2021/10/06 04:14:18;;;;;;;8.82;5.72;;;11.70;79.80;;;;;;5034113;28;20029;-50
2021/10/06 04:16:43;;;;;;;7.22;5.07;;;11.70;79.80;;;;;;5031092;28;20034;-51
2021/10/06 04:19:09;;;;;;;6.68;5.35;;;11.70;79.40;;;;;;5033679;28;20032;-52
2021/10/06 04:21:34;;;;;;;6.97;5.40;;;11.70;79.40;;;;;;5028016;28;20049;-52
2021/10/06 04:24:00;;;;;;;6.47;5.47;;;11.70;79.50;;;;;;5016700;28;20385;-50
2021/10/06 04:26:26;;;;;;;7.53;5.07;;;11.70;79.50;;;;;;5032423;28;20539;-50
2021/10/06 04:28:52;;;;;;;6.70;5.50;;;11.70;79.50;;;;;;5033619;28;20100;-50
2021/10/06 04:31:19;;;;;;;7.13;5.15;;;11.80;79.70;;;;;;5033048;28;20076;-51
2021/10/06 04:33:46;;;;;;;10.20;5.55;;;11.80;79.70;;;;;;5033506;28;20032;-50
2021/10/06 04:36:12;;;;;;;8.80;5.03;;;11.80;79.70;;;;;;5028141;28;20445;-50
2021/10/06 04:38:38;;;;;;;7.32;5.68;;;11.90;79.40;;;;;;5026523;28;20060;-52
2021/10/06 04:41:03;;;;;;;7.05;6.00;;;11.80;79.40;;;;;;5031006;28;20037;-50
2021/10/06 04:43:29;;;;;;;7.32;5.20;;;11.80;79.20;;;;;;5033353;28;20025;-50
2021/10/06 04:45:55;;;;;;;8.88;5.53;;;11.90;79.20;;;;;;5032941;28;20412;-51
2021/10/06 04:48:21;;;;;;;8.32;5.20;;;11.90;79.00;;;;;;5033356;28;20034;-51
2021/10/06 04:50:46;;;;;;;5.85;4.47;;;11.80;78.10;;;;;;5033307;28;20436;-53
2021/10/06 04:53:12;;;;;;;6.28;5.15;;;11.80;78.10;;;;;;5028882;28;20029;-50
2021/10/06 04:55:38;;;;;;;8.05;4.65;;;11.80;78.20;;;;;;5032762;28;20543;-52
2021/10/06 04:58:04;;;;;;;6.45;4.88;;;11.90;78.60;;;;;;5033807;28;20037;-51
2021/10/06 05:00:30;;;;;;;7.47;5.05;;;11.90;79.10;;;;;;5029379;28;20391;-50
2021/10/06 05:03:04;;;;;;;5.57;4.82;;;11.90;79.10;;;;;;5024415;28;20548;-50
2021/10/06 05:05:29;;;;;;;7.10;5.07;;;12.00;79.30;;;;;;5019587;28;20037;-50
2021/10/06 05:07:55;;;;;;;6.97;4.88;;;12.00;79.30;;;;;;5027954;28;20025;-50
2021/10/06 05:10:21;;;;;;;6.70;4.90;;;12.00;79.30;;;;;;5026927;28;20143;-51
2021/10/06 05:12:46;;;;;;;7.25;4.70;;;12.10;79.40;;;;;;5029534;28;20034;-50
2021/10/06 05:15:12;;;;;;;6.05;4.75;;;12.10;79.30;;;;;;5028239;28;20032;-50
2021/10/06 05:17:38;;;;;;;6.88;4.47;;;12.10;79.10;;;;;;5027878;28;20025;-51
2021/10/06 05:20:04;;;;;;;6.05;4.60;;;12.10;78.80;;;;;;5030307;28;20366;-50
2021/10/06 05:22:29;;;;;;;5.93;4.80;;;12.20;78.70;;;;;;5032411;28;20367;-50
2021/10/06 05:24:55;;;;;;;7.03;5.25;;;12.20;78.60;;;;;;5021458;28;20029;-51
2021/10/06 05:27:21;;;;;;;7.75;4.95;;;12.20;78.30;;;;;;5025736;28;20030;-52
2021/10/06 05:29:46;;;;;;;8.13;5.55;;;12.20;78.20;;;;;;5028574;28;20485;-50
2021/10/06 05:32:12;;;;;;;6.18;4.97;;;12.10;78.00;;;;;;5028318;28;20028;-52
2021/10/06 05:34:38;;;;;;;6.93;5.70;;;12.10;78.30;;;;;;5014908;28;20044;-53
2021/10/06 05:37:03;;;;;;;7.40;5.40;;;12.00;78.70;;;;;;5024218;28;20084;-50
2021/10/06 05:39:29;;;;;;;8.38;5.60;;;12.00;79.10;;;;;;5026290;28;20060;-50
2021/10/06 05:41:55;;;;;;;5.47;4.72;;;12.10;79.00;;;;;;5029519;28;20517;-50
2021/10/06 05:44:21;;;;;;;6.10;4.68;;;12.10;78.70;;;;;;5033780;28;20025;-50
2021/10/06 05:46:46;;;;;;;7.03;5.00;;;12.10;78.80;;;;;;5025414;28;20028;-50
2021/10/06 05:49:13;;;;;;;8.68;5.53;;;12.10;78.70;;;;;;5024793;28;21110;-51
2021/10/06 05:51:39;;;;;;;8.88;5.97;;;12.10;78.50;;;;;;5018439;28;21247;-50
2021/10/06 05:54:05;;;;;;;7.65;5.40;;;12.00;78.00;;;;;;5027084;28;20038;-50
2021/10/06 05:56:31;;;;;;;6.97;5.28;;;12.10;77.80;;;;;;5018011;28;20040;-53
2021/10/06 05:58:56;;;;;;;9.07;5.45;;;12.10;78.00;;;;;;5016896;28;20489;-53
2021/10/06 06:01:25;;;;;;;11.50;5.15;;;12.20;77.90;;;;;;5013585;28;20477;-50
2021/10/06 06:03:51;;;;;;;7.15;4.88;;;12.20;77.50;;;;;;5020432;28;20481;-53
2021/10/06 06:06:16;;;;;;;9.32;5.35;;;12.20;77.20;;;;;;5018340;28;20121;-53
2021/10/06 06:08:42;;;;;;;7.80;5.20;;;12.30;76.70;;;;;;5016692;28;20060;-51
2021/10/06 06:11:07;;;;;;;7.05;5.28;;;12.30;76.40;;;;;;5018975;28;20140;-51
2021/10/06 06:13:33;;;;;;;6.60;5.18;;;12.30;76.30;;;;;;5013622;28;20041;-50
2021/10/06 06:15:59;;;;;;;6.10;5.45;;;12.30;76.30;;;;;;5026746;28;20033;-50
2021/10/06 06:18:25;;;;;;;7.22;4.78;;;12.30;76.30;;;;;;5019150;28;20033;-50
2021/10/06 06:20:50;;;;;;;6.35;4.50;;;12.30;76.40;;;;;;5011224;28;20033;-51
2021/10/06 06:23:16;;;;;;;8.50;4.85;;;12.30;76.30;;;;;;5012716;28;20049;-52
2021/10/06 06:25:42;;;;;;;6.05;4.57;;;12.40;76.10;;;;;;5018569;28;20590;-50
2021/10/06 06:28:17;;;;;;;7.57;4.82;;;12.40;75.90;;;;;;5017344;28;20481;-52
2021/10/06 06:30:42;;;;;;;5.78;4.68;;;12.40;75.80;;;;;;5012342;28;20377;-50
2021/10/06 06:33:08;;;;;;;6.70;5.18;;;12.40;75.90;;;;;;5014564;28;20021;-52
2021/10/06 06:35:34;;;;;;;7.22;5.07;;;12.40;75.90;;;;;;5015356;28;20046;-49
2021/10/06 06:37:59;;;;;;;7.25;5.63;;;12.40;76.00;;;;;;5013470;28;20481;-53
2021/10/06 06:40:25;;;;;;;10.35;6.30;;;12.30;76.00;;;;;;5011302;28;20095;-51
2021/10/06 06:42:51;;;;;;;7.75;6.10;;;12.30;76.30;;;;;;5010409;28;20495;-51
2021/10/06 06:45:17;;;;;;;8.68;5.65;;;12.30;76.40;;;;;;5015159;28;20029;-50
2021/10/06 06:47:43;;;;;;;7.80;5.45;;;12.30;76.20;;;;;;5013573;28;20493;-52
2021/10/06 06:50:11;;;;;;;9.10;6.40;;;12.20;76.00;;;;;;5016954;28;20028;-50
2021/10/06 06:52:37;;;;;;;8.32;5.18;;;12.20;75.90;;;;;;5012134;28;20037;-50
2021/10/06 06:55:04;;;;;;;7.95;5.25;;;12.10;75.70;;;;;;5014789;28;20037;-50
2021/10/06 06:57:30;;;;;;;6.07;5.20;;;12.00;75.80;;;;;;5012826;28;20037;-51
2021/10/06 06:59:56;;;;;;;7.10;4.72;;;12.00;75.70;;;;;;5009650;28;20029;-50
2021/10/06 07:02:21;;;;;;;8.38;5.15;;;12.00;75.80;;;;;;5011627;28;20041;-53
2021/10/06 07:04:47;;;;;;;6.68;5.30;;;11.90;75.70;;;;;;5008905;28;20034;-50
2021/10/06 07:07:14;;;;;;;8.00;5.15;;;11.80;75.70;;;;;;5012681;28;20033;-50
2021/10/06 07:09:47;;;;;;;7.47;5.30;;;11.80;75.80;;;;;;5014144;28;20030;-51
2021/10/06 07:12:18;;;;;;;7.00;5.05;;;11.80;75.70;;;;;;5016784;28;20071;-50
2021/10/06 07:14:44;;;;;;;7.35;5.25;;;11.90;75.80;;;;;;5010631;28;20778;-50
2021/10/06 07:17:10;;;;;;;6.30;4.85;;;11.90;75.90;;;;;;5007865;28;20375;-53
2021/10/06 07:19:37;;;;;;;6.93;5.22;;;11.90;75.90;;;;;;5004668;28;20040;-50
2021/10/06 07:22:03;;;;;;;6.90;4.95;;;11.90;75.70;;;;;;5001985;28;20029;-51
2021/10/06 07:24:29;;;;;;;6.05;4.72;;;12.00;75.70;;;;;;4999918;28;20100;-50
2021/10/06 07:26:54;;;;;;;7.68;4.78;;;12.10;75.60;;;;;;5001870;28;20531;-50
2021/10/06 07:29:20;;;;;;;7.25;4.97;;;12.10;75.30;;;;;;5000718;28;22064;-52
2021/10/06 07:31:46;;;;;;;5.57;4.60;;;12.10;74.80;;;;;;4998740;28;20119;-53
2021/10/06 07:34:11;;;;;;;8.48;5.00;;;12.20;75.10;;;;;;5004270;28;20123;-53
2021/10/06 07:36:37;;;;;;;6.53;4.70;;;12.20;75.10;;;;;;5004511;28;20025;-53
2021/10/06 07:39:05;;;;;;;6.22;4.25;;;12.30;75.10;;;;;;5002612;28;20037;-50
2021/10/06 07:41:31;;;;;;;7.20;4.57;;;12.30;74.20;;;;;;4997379;28;20021;-53
2021/10/06 07:43:57;;;;;;;10.80;4.60;;;12.40;74.00;;;;;;4998688;28;20437;-53
2021/10/06 07:46:23;;;;;;;6.53;4.20;;;12.40;73.90;;;;;;5004662;28;20034;-53
2021/10/06 07:48:49;;;;;;;7.80;4.70;;;12.40;73.80;;;;;;5005445;28;20044;-50
2021/10/06 07:51:15;;;;;;;5.45;4.43;;;12.40;73.30;;;;;;5009938;28;20033;-51
2021/10/06 07:53:41;;;;;;;5.15;4.13;;;12.50;72.90;;;;;;5006539;28;20041;-52
2021/10/06 07:56:06;;;;;;;5.32;3.90;;;12.50;72.90;;;;;;5003937;28;20044;-52
2021/10/06 07:58:32;;;;;;;6.40;3.95;;;12.50;71.90;;;;;;5003062;28;20168;-51
2021/10/06 08:00:57;;;;;;;4.50;3.60;;;12.50;71.40;;;;;;5005985;28;20127;-52
2021/10/06 08:03:23;;;;;;;7.07;4.32;;;12.50;70.30;;;;;;5006317;28;20087;-53
2021/10/06 08:05:49;;;;;;;5.32;4.15;;;12.60;69.50;;;;;;5001102;28;20034;-50
2021/10/06 08:08:15;;;;;;;8.32;4.07;;;12.60;68.90;;;;;;5006491;28;20032;-51
2021/10/06 08:10:41;;;;;;;5.43;3.55;;;12.60;68.50;;;;;;5004592;28;20572;-50
2021/10/06 08:13:06;;;;;;;5.30;3.85;;;12.60;68.80;;;;;;5004933;28;20040;-50
2021/10/06 08:15:34;;;;;;;6.65;3.75;;;12.60;67.30;;;;;;5009156;28;20043;-53
2021/10/06 08:18:00;;;;;;;6.40;3.45;;;12.60;67.00;;;;;;5010041;28;20049;-52
2021/10/06 08:20:27;;;;;;;5.60;3.55;;;12.60;66.10;;;;;;5008379;28;20029;-51
2021/10/06 08:22:52;;;;;;;4.82;3.75;;;12.60;65.60;;;;;;5006502;28;22324;-51
2021/10/06 08:25:18;;;;;;;6.25;3.78;;;12.60;65.50;;;;;;5009734;28;20037;-50
2021/10/06 08:27:44;;;;;;;5.35;3.75;;;12.60;65.60;;;;;;5006324;28;20039;-50
2021/10/06 08:30:10;;;;;;;8.57;3.90;;;12.60;65.10;;;;;;5007991;28;20044;-50
2021/10/06 08:32:36;;;;;;;4.75;3.40;;;12.60;65.30;;;;;;4999714;28;20120;-53
2021/10/06 08:35:02;;;;;;;6.43;3.90;;;12.60;65.20;;;;;;5006224;28;20706;-50
2021/10/06 08:37:28;;;;;;;7.90;3.95;;;12.60;64.90;;;;;;5001715;28;20025;-53
2021/10/06 08:39:53;;;;;;;11.02;3.83;;;12.60;65.80;;;;;;5007006;28;20061;-50
2021/10/06 08:42:20;;;;;;;5.25;4.20;;;12.60;64.20;;;;;;5004887;28;20029;-50
2021/10/06 08:44:46;;;;;;;8.20;4.20;;;12.60;63.60;;;;;;5002354;28;20041;-50
2021/10/06 08:47:13;;;;;;;5.15;3.75;;;12.60;63.60;;;;;;5007802;28;20162;-50
2021/10/06 08:49:39;;;;;;;5.88;4.15;;;12.60;63.80;;;;;;4991331;28;20059;-51
2021/10/06 08:52:05;;;;;;;5.45;3.67;;;12.60;63.90;;;;;;5006912;28;20037;-52
2021/10/06 08:54:32;;;;;;;8.13;4.28;;;12.60;63.50;;;;;;5005792;28;20042;-52
2021/10/06 08:56:58;;;;;;;6.88;4.10;;;12.60;63.60;;;;;;5002753;28;20095;-53
2021/10/06 08:59:24;;;;;;;4.82;3.60;;;12.60;63.60;;;;;;5000943;28;20096;-50
2021/10/06 09:01:49;;;;;;;4.97;4.15;;;12.60;63.90;;;;;;4987127;28;20533;-51
2021/10/06 09:04:15;;;;;;;4.55;3.90;;;12.60;64.10;;;;;;5007650;28;20504;-52
2021/10/06 09:06:43;;;;;;;5.70;4.05;;;12.70;64.00;;;;;;5006136;28;20037;-53
2021/10/06 09:09:21;;;;;;;5.13;3.53;;;12.70;63.90;;;;;;5008209;28;20575;-51
2021/10/06 09:11:49;;;;;;;6.10;3.90;;;12.70;63.90;;;;;;5004947;28;20037;-53
2021/10/06 09:14:15;;;;;;;7.60;4.45;;;12.70;64.30;;;;;;5007205;28;20029;-51
2021/10/06 09:16:42;;;;;;;5.28;4.47;;;12.70;64.20;;;;;;5009990;28;20554;-50
2021/10/06 09:19:09;;;;;;;5.30;4.30;;;12.80;64.10;;;;;;5008916;28;20789;-51
2021/10/06 09:21:51;;;;;;;5.03;3.75;;;12.80;64.10;;;;;;5013954;28;20072;-50
2021/10/06 09:24:17;;;;;;;5.82;4.00;;;12.80;64.00;;;;;;5015021;28;20689;-51
2021/10/06 09:26:43;;;;;;;5.50;3.60;;;12.90;64.10;;;;;;5005369;28;20041;-53
2021/10/06 09:29:21;;;;;;;5.32;3.63;;;12.90;64.20;;;;;;5008791;28;20035;-50
2021/10/06 09:31:46;;;;;;;4.90;3.60;;;12.90;63.70;;;;;;5008934;28;20092;-50
2021/10/06 09:34:12;;;;;;;5.47;3.40;;;13.00;63.80;;;;;;5008388;28;20037;-52
2021/10/06 09:36:38;;;;;;;4.15;3.47;;;13.00;63.50;;;;;;5014808;28;20436;-51
2021/10/06 09:39:07;;;;;;;4.43;3.65;;;13.00;63.50;;;;;;5011052;28;20096;-53
2021/10/06 09:41:39;;;;;;;4.47;3.45;;;13.00;63.40;;;;;;5007528;28;20029;-50
2021/10/06 09:44:07;;;;;;;5.10;3.55;;;13.00;63.10;;;;;;5011450;28;20026;-50
2021/10/06 09:46:57;;;;;;;3.70;3.22;;;13.00;63.00;;;;;;5008191;28;20021;-53
2021/10/06 09:49:34;;;;;;;4.20;3.35;;;13.00;62.30;;;;;;5010311;28;20795;-52
2021/10/06 09:52:23;;;;;;;3.58;3.28;;;13.00;62.60;;;;;;5011947;28;20045;-50
2021/10/06 09:54:50;;;;;;;3.75;3.22;;;13.10;62.40;;;;;;5011045;28;20083;-51
2021/10/06 09:57:23;;;;;;;3.45;3.15;;;13.00;62.30;;;;;;5012981;28;20030;-51
2021/10/06 09:59:50;;;;;;;5.05;3.20;;;13.10;62.30;;;;;;5009042;28;20123;-52
2021/10/06 10:02:17;;;;;;;4.90;3.03;;;13.10;61.90;;;;;;5015416;28;20056;-54
2021/10/06 10:04:43;;;;;;;5.13;2.92;;;13.20;61.90;;;;;;5013662;28;20034;-50
2021/10/06 10:07:09;;;;;;;3.47;2.85;;;13.20;61.40;;;;;;5014968;28;20028;-52
2021/10/06 10:09:36;;;;;;;4.32;3.17;;;13.20;61.50;;;;;;5013656;28;20037;-52
2021/10/06 10:12:03;;;;;;;3.28;2.97;;;13.20;61.20;;;;;;5014242;28;20041;-53
2021/10/06 10:14:29;;;;;;;4.20;2.83;;;13.20;61.20;;;;;;5015718;28;20490;-53
2021/10/06 10:16:55;;;;;;;5.63;2.97;;;13.30;60.90;;;;;;5015361;28;20124;-53
2021/10/06 10:19:20;;;;;;;3.38;3.08;;;13.30;60.30;;;;;;5016535;28;20392;-51
2021/10/06 10:21:49;;;;;;;4.10;2.85;;;13.30;59.10;;;;;;5017889;28;20029;-52
2021/10/06 10:24:21;;;;;;;5.05;3.08;;;13.40;59.10;;;;;;5020133;28;20040;-53
2021/10/06 10:27:18;;;;;;;8.65;3.28;;;13.40;58.80;;;;;;5012590;28;20030;-51
2021/10/06 10:29:52;;;;;;;4.97;3.10;;;13.40;58.50;;;;;;4995699;28;20049;-50
2021/10/06 10:32:26;;;;;;;5.35;3.08;;;13.50;58.90;;;;;;4995251;28;20030;-50
2021/10/06 10:34:59;;;;;;;4.40;3.75;;;13.50;58.40;;;;;;5013806;28;20038;-50
2021/10/06 10:37:49;;;;;;;4.35;3.10;;;13.50;58.30;;;;;;5014531;28;20029;-50
2021/10/06 10:40:34;;;;;;;4.25;3.10;;;13.50;56.70;;;;;;5013644;28;20045;-50
2021/10/06 10:43:01;;;;;;;4.03;3.38;;;13.50;57.80;;;;;;5014121;28;20033;-51
2021/10/06 10:45:47;;;;;;;3.25;2.70;;;13.50;57.90;;;;;;5017408;28;20033;-50
2021/10/06 10:48:14;;;;;;;6.18;2.90;;;13.60;57.30;;;;;;5015301;28;20029;-50
2021/10/06 10:51:00;;;;;;;3.28;2.83;;;13.50;57.20;;;;;;5014141;28;20049;-50
2021/10/06 10:53:50;;;;;;;5.82;3.30;;;13.50;56.70;;;;;;5013887;28;20064;-50
2021/10/06 10:56:48;;;;;;;5.63;3.23;;;13.50;56.50;;;;;;5014460;28;20041;-50
2021/10/06 10:59:23;;;;;;;3.80;2.80;;;13.50;56.70;;;;;;5006107;28;20397;-50
2021/10/06 11:01:59;;;;;;;3.15;2.83;;;13.50;56.90;;;;;;5013417;28;20037;-50
2021/10/06 11:04:35;;;;;;;4.32;3.05;;;13.50;56.30;;;;;;5013416;28;20030;-50
2021/10/06 11:07:18;;;;;;;13.95;3.30;;;13.50;56.60;;;;;;5014700;28;20397;-50
2021/10/06 11:09:55;;;;;;;4.60;2.90;;;13.60;56.60;;;;;;5011248;28;20034;-49
2021/10/06 11:12:21;;;;;;;3.70;2.67;;;13.60;56.30;;;;;;5014967;28;20477;-52
2021/10/06 11:15:04;;;;;;;2.90;2.58;;;13.60;56.50;;;;;;5012360;28;20022;-50
2021/10/06 11:17:29;;;;;;;3.05;2.72;;;13.60;56.80;;;;;;5009098;28;20143;-53
2021/10/06 11:19:55;;;;;;;4.43;2.58;;;13.60;57.10;;;;;;5013208;28;20048;-50
2021/10/06 11:22:24;;;;;;;8.43;3.10;;;13.60;56.30;;;;;;5010730;28;20037;-53
2021/10/06 11:25:00;;;;;;;5.88;2.97;;;13.60;56.30;;;;;;5011102;28;20120;-52
2021/10/06 11:27:28;;;;;;;3.22;2.55;;;13.60;56.20;;;;;;5008175;28;20358;-50
2021/10/06 11:29:56;;;;;;;5.07;2.70;;;13.60;55.60;;;;;;5006334;28;20018;-53
2021/10/06 11:32:22;;;;;;;2.67;2.47;;;13.60;54.80;;;;;;5008610;28;20029;-53
2021/10/06 11:34:50;;;;;;;3.00;2.22;;;13.50;54.70;;;;;;5009244;28;21926;-50
2021/10/06 11:37:18;;;;;;;3.55;2.40;;;13.50;54.70;;;;;;5009759;28;20068;-53
2021/10/06 11:39:45;;;;;;;5.93;3.08;;;13.50;54.10;;;;;;5012391;28;20062;-51
2021/10/06 11:42:11;;;;;;;3.95;3.08;;;13.40;53.70;;;;;;5012378;28;20041;-49
2021/10/06 11:44:39;;;;;;;5.63;2.50;;;13.40;53.90;;;;;;5007319;28;20046;-50
2021/10/06 11:47:11;;;;;;;4.75;2.67;;;13.40;54.10;;;;;;5013998;28;20357;-50
2021/10/06 11:49:40;;;;;;;3.47;2.50;;;13.40;53.80;;;;;;5009110;28;20081;-50
2021/10/06 11:52:08;;;;;;;2.70;2.35;;;13.30;53.40;;;;;;5010140;28;20602;-53
2021/10/06 11:54:34;;;;;;;3.30;2.55;;;13.30;53.40;;;;;;5010847;28;20513;-51
2021/10/06 11:57:03;;;;;;;3.00;2.25;;;13.30;53.20;;;;;;5005776;28;20029;-54
2021/10/06 11:59:30;;;;;;;5.75;2.50;;;13.30;53.40;;;;;;5009058;28;20033;-50
2021/10/06 12:01:59;;;;;;;7.57;3.05;;;13.30;53.50;;;;;;5008714;28;20033;-50
2021/10/06 12:04:28;;;;;;;5.03;2.63;;;13.30;52.80;;;;;;5010030;28;20062;-52
2021/10/06 12:07:00;;;;;;;4.05;2.33;;;13.30;53.00;;;;;;5010987;28;20382;-54
2021/10/06 12:09:32;;;;;;;4.43;2.63;;;13.30;53.20;;;;;;5013165;28;20028;-51
2021/10/06 12:11:58;;;;;;;4.40;2.88;;;13.30;52.60;;;;;;5016840;28;20045;-52
2021/10/06 12:14:31;;;;;;;3.63;2.90;;;13.30;53.10;;;;;;5012172;28;20088;-51
2021/10/06 12:17:07;;;;;;;3.95;2.53;;;13.30;52.70;;;;;;5012305;28;20218;-53
2021/10/06 12:19:35;;;;;;;4.32;2.72;;;13.40;52.70;;;;;;5012919;28;20030;-53
2021/10/06 12:22:01;;;;;;;3.30;2.20;;;13.40;51.80;;;;;;5010816;28;20871;-53
2021/10/06 12:24:28;;;;;;;3.75;2.47;;;13.30;51.80;;;;;;5007557;28;20021;-51
2021/10/06 12:26:54;;;;;;;4.18;2.50;;;13.30;51.70;;;;;;5010275;28;20542;-54
2021/10/06 12:29:23;;;;;;;4.60;2.60;;;13.30;52.10;;;;;;5014109;28;20013;-50
2021/10/06 12:31:50;;;;;;;4.85;2.97;;;13.30;52.00;;;;;;5008451;28;20444;-52
2021/10/06 12:34:21;;;;;;;3.35;2.20;;;13.30;52.20;;;;;;5001573;28;20066;-53
2021/10/06 12:36:53;;;;;;;2.95;2.20;;;13.30;52.20;;;;;;5012417;28;20045;-53
2021/10/06 12:39:27;;;;;;;6.75;2.60;;;13.30;52.70;;;;;;5015113;28;20045;-52
2021/10/06 12:41:56;;;;;;;3.47;2.25;;;13.30;52.10;;;;;;5007244;28;20037;-51
2021/10/06 12:44:23;;;;;;;2.55;2.22;;;13.30;52.00;;;;;;5014705;28;20029;-54
2021/10/06 12:46:50;;;;;;;2.20;2.00;;;13.20;51.90;;;;;;5014428;28;20041;-51